Arabi, LA

11:46 PM CST on November 11, 2019 (GMT -0600)
Versailles | | Change Station
Active Advisory: Wind Advisory

Elev 13 ft 29.95 °N, 89.99 °W | Updated 5 seconds ago

Mostly Cloudy
Mostly Cloudy
69.3 °F
Feels Like 69.3 °F
N
2
Wind Variable Wind from South
Gusts 3.0 mph

Today
High -- | Low -- °F
--% Chance of Precip.
Yesterday
High -- | Low -- °F
Precip. -- in
Pressure 29.99 in
Visibility 10.0 miles
Clouds Few 2900 ft
Mostly Cloudy 5500 ft
Overcast 7000 ft
Dew Point 69 °F
Humidity 99%
Rainfall 0.00 in
Snow Depth Not available.
6:21 AM 5:06 PM
Full, 100% visible
METAR KNEW 120453Z AUTO 21006KT 10SM FEW029 BKN055 OVC070 21/18 A3001 RMK AO2 SLP156 T02060183
Pressure 29.99 in
Visibility 10.0 miles
Clouds Few 2900 ft
Mostly Cloudy 5500 ft
Overcast 7000 ft
Dew Point 69 °F
Humidity 99%
Rainfall 0.00 in
Snow Depth Not available.
6:21 AM 5:06 PM
Full, 100% visible
METAR KNEW 120453Z AUTO 21006KT 10SM FEW029 BKN055 OVC070 21/18 A3001 RMK AO2 SLP156 T02060183

Get Your Daily Forecast Email!

Thanks for signing up!

Be on the lookout for a verification email in your inbox.

You'll start receiving severe weather alerts in your inbox..

×

10-Day Weather Forecast

Almanac

Astronomy

Nov. 11, 2019 Rise Set
Actual Time
Civil Twilight
Nautical Twilight
Astronomical Twilight
Moon
Length of Visible Light
Length of Day
Tomorrow will be .
, % of the Moon is Illuminated

Today's Extremes

State Highs State Lows

Community

WunderPhotos

Category 6

Welcome to Category 6. This is the collective home for Weather Underground's featured writeups by Dr. Jeff Masters (right), Bob Henson (left), Chris Burt, and other regular contributors.

Nearby

Air Quality

  Air Quality AQ Index Pollutant
Not available.

Snow Depth

Station Depth Elevation

Earthquake Activity

City Distance Mag. Time & Date
Minimum magnitude displayed is 2.5.

Coastal Water Temperatures

Place Temperature

Stations

Nearby Weather Stations

Station Location Temp. Windchill Dew Point Humidity Wind Precip. Elev Updated Type
                   

Watches & Warnings

Wind Advisory
Issued: 7:30 PM CST Nov. 11, 2019 – National Weather Service

... Wind Advisory in effect from 3 am to 3 PM CST Tuesday...

* what... north winds 20 to 30 mph with gusts up to 40 mph
expected.

* Where... St. Charles, upper Jefferson, Orleans, upper
Plaquemines, upper St. Bernard, lower Terrebonne, lower
Lafourche, lower Jefferson, lower Plaquemines and lower St.
Bernard counties.

* When... from 3 am to 3 PM CST Tuesday.

* Impacts... gusty winds could blow around unsecured objects.
Tree limbs could be blown down and a few power outages may
result.

* Additional details... stronger winds and high gusts may continue
into the evening hours Tuesday near the South Shore of Lake
Pontchartrain into the downtown New Orleans area.

Precautionary/preparedness actions...

Use extra caution when driving, especially if operating a high
profile vehicle. Secure outdoor objects.



TD